sensor_id;sensor_type;location;lat;lon;timestamp;P1;durP1;ratioP1;P2;durP2;ratioP2
9836;SDS011;4957;51.412;6.724;2023-03-03T00:02:07;77.40;;;35.07;;
9836;SDS011;4957;51.412;6.724;2023-03-03T00:04:33;73.77;;;34.70;;
9836;SDS011;4957;51.412;6.724;2023-03-03T00:06:58;76.63;;;35.70;;
9836;SDS011;4957;51.412;6.724;2023-03-03T00:09:24;82.20;;;34.30;;
9836;SDS011;4957;51.412;6.724;2023-03-03T00:11:53;76.93;;;34.33;;
9836;SDS011;4957;51.412;6.724;2023-03-03T00:14:22;78.40;;;33.47;;
9836;SDS011;4957;51.412;6.724;2023-03-03T00:16:56;71.43;;;32.87;;
9836;SDS011;4957;51.412;6.724;2023-03-03T00:19:24;77.87;;;34.60;;
9836;SDS011;4957;51.412;6.724;2023-03-03T00:21:51;69.80;;;30.30;;
9836;SDS011;4957;51.412;6.724;2023-03-03T00:24:23;74.30;;;31.67;;
9836;SDS011;4957;51.412;6.724;2023-03-03T00:27:01;73.57;;;33.93;;
9836;SDS011;4957;51.412;6.724;2023-03-03T00:30:00;70.77;;;31.27;;
9836;SDS011;4957;51.412;6.724;2023-03-03T00:32:27;81.77;;;34.23;;
9836;SDS011;4957;51.412;6.724;2023-03-03T00:35:24;75.77;;;33.07;;
9836;SDS011;4957;51.412;6.724;2023-03-03T00:37:55;76.70;;;35.00;;
9836;SDS011;4957;51.412;6.724;2023-03-03T00:40:36;76.97;;;37.43;;
9836;SDS011;4957;51.412;6.724;2023-03-03T00:45:51;77.77;;;35.57;;
9836;SDS011;4957;51.412;6.724;2023-03-03T00:53:46;73.37;;;32.87;;
9836;SDS011;4957;51.412;6.724;2023-03-03T00:56:12;73.37;;;33.50;;
9836;SDS011;4957;51.412;6.724;2023-03-03T00:58:38;74.00;;;34.43;;
9836;SDS011;4957;51.412;6.724;2023-03-03T01:01:04;73.37;;;33.33;;
9836;SDS011;4957;51.412;6.724;2023-03-03T01:03:29;63.60;;;29.90;;
9836;SDS011;4957;51.412;6.724;2023-03-03T01:05:56;72.57;;;33.33;;
9836;SDS011;4957;51.412;6.724;2023-03-03T01:08:22;70.83;;;33.83;;
9836;SDS011;4957;51.412;6.724;2023-03-03T01:10:49;64.60;;;30.57;;
9836;SDS011;4957;51.412;6.724;2023-03-03T01:13:17;66.93;;;28.83;;
9836;SDS011;4957;51.412;6.724;2023-03-03T01:15:44;63.87;;;29.17;;
9836;SDS011;4957;51.412;6.724;2023-03-03T01:18:10;61.67;;;29.27;;
9836;SDS011;4957;51.412;6.724;2023-03-03T01:20:37;72.57;;;32.83;;
9836;SDS011;4957;51.412;6.724;2023-03-03T01:23:03;65.00;;;30.80;;
9836;SDS011;4957;51.412;6.724;2023-03-03T01:25:28;64.83;;;29.00;;
9836;SDS011;4957;51.412;6.724;2023-03-03T01:27:54;63.97;;;29.67;;
9836;SDS011;4957;51.412;6.724;2023-03-03T01:30:20;56.20;;;27.87;;
9836;SDS011;4957;51.412;6.724;2023-03-03T01:32:46;57.03;;;29.03;;
9836;SDS011;4957;51.412;6.724;2023-03-03T01:35:12;62.57;;;28.03;;
9836;SDS011;4957;51.412;6.724;2023-03-03T01:37:38;67.13;;;32.47;;
9836;SDS011;4957;51.412;6.724;2023-03-03T01:40:10;69.87;;;31.60;;
9836;SDS011;4957;51.412;6.724;2023-03-03T01:42:39;68.67;;;26.33;;
9836;SDS011;4957;51.412;6.724;2023-03-03T01:45:21;69.60;;;30.90;;
9836;SDS011;4957;51.412;6.724;2023-03-03T01:53:55;59.57;;;26.43;;
9836;SDS011;4957;51.412;6.724;2023-03-03T01:56:23;67.57;;;31.73;;
9836;SDS011;4957;51.412;6.724;2023-03-03T01:59:32;69.77;;;29.70;;
9836;SDS011;4957;51.412;6.724;2023-03-03T02:01:41;72.30;;;29.83;;
9836;SDS011;4957;51.412;6.724;2023-03-03T02:04:07;69.63;;;34.47;;
9836;SDS011;4957;51.412;6.724;2023-03-03T02:06:34;60.80;;;27.87;;
9836;SDS011;4957;51.412;6.724;2023-03-03T02:11:45;56.03;;;26.53;;
9836;SDS011;4957;51.412;6.724;2023-03-03T02:14:14;53.83;;;26.97;;
9836;SDS011;4957;51.412;6.724;2023-03-03T02:16:40;62.30;;;27.40;;
9836;SDS011;4957;51.412;6.724;2023-03-03T02:19:07;52.67;;;25.47;;
9836;SDS011;4957;51.412;6.724;2023-03-03T02:21:59;59.33;;;26.53;;
9836;SDS011;4957;51.412;6.724;2023-03-03T02:26:58;66.33;;;29.27;;
9836;SDS011;4957;51.412;6.724;2023-03-03T02:29:24;58.67;;;27.13;;
9836;SDS011;4957;51.412;6.724;2023-03-03T02:31:50;64.20;;;28.00;;
9836;SDS011;4957;51.412;6.724;2023-03-03T02:34:16;59.53;;;28.80;;
9836;SDS011;4957;51.412;6.724;2023-03-03T02:36:41;62.43;;;29.47;;
9836;SDS011;4957;51.412;6.724;2023-03-03T02:44:29;53.73;;;26.90;;
9836;SDS011;4957;51.412;6.724;2023-03-03T02:46:56;49.07;;;23.70;;
9836;SDS011;4957;51.412;6.724;2023-03-03T02:49:32;49.10;;;22.97;;
9836;SDS011;4957;51.412;6.724;2023-03-03T02:52:00;46.73;;;21.50;;
9836;SDS011;4957;51.412;6.724;2023-03-03T02:54:28;39.10;;;20.17;;
9836;SDS011;4957;51.412;6.724;2023-03-03T02:56:55;39.83;;;20.70;;
9836;SDS011;4957;51.412;6.724;2023-03-03T02:59:21;50.67;;;22.77;;
9836;SDS011;4957;51.412;6.724;2023-03-03T03:01:47;55.17;;;25.50;;
9836;SDS011;4957;51.412;6.724;2023-03-03T03:04:14;65.40;;;30.43;;
9836;SDS011;4957;51.412;6.724;2023-03-03T03:06:42;63.87;;;27.63;;
9836;SDS011;4957;51.412;6.724;2023-03-03T03:09:08;53.23;;;25.30;;
9836;SDS011;4957;51.412;6.724;2023-03-03T03:11:34;64.23;;;26.73;;
9836;SDS011;4957;51.412;6.724;2023-03-03T03:14:01;54.77;;;25.23;;
9836;SDS011;4957;51.412;6.724;2023-03-03T03:16:28;57.77;;;26.00;;
9836;SDS011;4957;51.412;6.724;2023-03-03T03:18:54;48.93;;;23.37;;
9836;SDS011;4957;51.412;6.724;2023-03-03T03:21:20;53.73;;;25.23;;
9836;SDS011;4957;51.412;6.724;2023-03-03T03:23:45;64.10;;;28.77;;
9836;SDS011;4957;51.412;6.724;2023-03-03T03:26:11;62.00;;;26.70;;
9836;SDS011;4957;51.412;6.724;2023-03-03T03:28:37;69.33;;;28.70;;
9836;SDS011;4957;51.412;6.724;2023-03-03T03:31:03;71.77;;;32.67;;
9836;SDS011;4957;51.412;6.724;2023-03-03T03:33:30;71.27;;;30.43;;
9836;SDS011;4957;51.412;6.724;2023-03-03T03:35:56;70.47;;;29.53;;
9836;SDS011;4957;51.412;6.724;2023-03-03T03:38:22;59.80;;;26.27;;
9836;SDS011;4957;51.412;6.724;2023-03-03T03:40:49;62.93;;;27.83;;
9836;SDS011;4957;51.412;6.724;2023-03-03T03:43:15;60.33;;;27.47;;
9836;SDS011;4957;51.412;6.724;2023-03-03T03:45:41;56.87;;;27.03;;
9836;SDS011;4957;51.412;6.724;2023-03-03T03:48:07;63.70;;;27.67;;
9836;SDS011;4957;51.412;6.724;2023-03-03T03:50:33;62.03;;;26.83;;
9836;SDS011;4957;51.412;6.724;2023-03-03T03:52:58;57.37;;;26.37;;
9836;SDS011;4957;51.412;6.724;2023-03-03T03:55:24;57.23;;;25.77;;
9836;SDS011;4957;51.412;6.724;2023-03-03T03:57:51;51.47;;;23.27;;
9836;SDS011;4957;51.412;6.724;2023-03-03T04:00:17;55.13;;;24.97;;
9836;SDS011;4957;51.412;6.724;2023-03-03T04:02:43;50.57;;;24.57;;
9836;SDS011;4957;51.412;6.724;2023-03-03T04:05:08;51.47;;;24.00;;
9836;SDS011;4957;51.412;6.724;2023-03-03T04:07:34;49.20;;;22.93;;
9836;SDS011;4957;51.412;6.724;2023-03-03T04:10:00;52.63;;;23.90;;
9836;SDS011;4957;51.412;6.724;2023-03-03T04:12:25;52.93;;;23.20;;
9836;SDS011;4957;51.412;6.724;2023-03-03T04:14:51;56.67;;;24.20;;
9836;SDS011;4957;51.412;6.724;2023-03-03T04:17:17;61.87;;;26.53;;
9836;SDS011;4957;51.412;6.724;2023-03-03T04:19:44;66.57;;;26.40;;
9836;SDS011;4957;51.412;6.724;2023-03-03T04:22:10;60.83;;;25.80;;
9836;SDS011;4957;51.412;6.724;2023-03-03T04:24:37;62.23;;;26.80;;
9836;SDS011;4957;51.412;6.724;2023-03-03T04:27:03;59.63;;;27.00;;
9836;SDS011;4957;51.412;6.724;2023-03-03T04:29:29;59.70;;;25.73;;
9836;SDS011;4957;51.412;6.724;2023-03-03T04:31:55;62.43;;;26.53;;
9836;SDS011;4957;51.412;6.724;2023-03-03T04:34:21;70.93;;;30.10;;
9836;SDS011;4957;51.412;6.724;2023-03-03T04:36:46;71.70;;;25.70;;
9836;SDS011;4957;51.412;6.724;2023-03-03T04:39:12;64.13;;;26.27;;
9836;SDS011;4957;51.412;6.724;2023-03-03T04:41:38;59.23;;;26.00;;
9836;SDS011;4957;51.412;6.724;2023-03-03T04:44:03;60.70;;;26.43;;
9836;SDS011;4957;51.412;6.724;2023-03-03T04:46:29;59.40;;;26.37;;
9836;SDS011;4957;51.412;6.724;2023-03-03T04:48:55;60.23;;;27.97;;
9836;SDS011;4957;51.412;6.724;2023-03-03T04:51:21;57.00;;;26.73;;
9836;SDS011;4957;51.412;6.724;2023-03-03T04:53:47;54.93;;;24.70;;
9836;SDS011;4957;51.412;6.724;2023-03-03T04:56:13;59.63;;;25.27;;
9836;SDS011;4957;51.412;6.724;2023-03-03T04:58:38;63.90;;;28.43;;
9836;SDS011;4957;51.412;6.724;2023-03-03T05:01:04;57.20;;;25.80;;
9836;SDS011;4957;51.412;6.724;2023-03-03T05:03:30;66.97;;;28.00;;
9836;SDS011;4957;51.412;6.724;2023-03-03T05:05:56;62.10;;;26.67;;
9836;SDS011;4957;51.412;6.724;2023-03-03T05:08:22;52.47;;;24.83;;
9836;SDS011;4957;51.412;6.724;2023-03-03T05:10:51;46.77;;;22.93;;
9836;SDS011;4957;51.412;6.724;2023-03-03T05:13:18;53.90;;;23.17;;
9836;SDS011;4957;51.412;6.724;2023-03-03T05:15:48;51.93;;;23.37;;
9836;SDS011;4957;51.412;6.724;2023-03-03T05:18:19;50.47;;;22.40;;
9836;SDS011;4957;51.412;6.724;2023-03-03T05:20:45;48.40;;;20.90;;
9836;SDS011;4957;51.412;6.724;2023-03-03T05:23:11;54.87;;;23.00;;
9836;SDS011;4957;51.412;6.724;2023-03-03T05:25:38;57.80;;;23.03;;
9836;SDS011;4957;51.412;6.724;2023-03-03T05:28:05;57.37;;;24.63;;
9836;SDS011;4957;51.412;6.724;2023-03-03T05:30:31;55.37;;;23.40;;
9836;SDS011;4957;51.412;6.724;2023-03-03T05:32:56;62.67;;;25.00;;
9836;SDS011;4957;51.412;6.724;2023-03-03T05:35:23;55.67;;;23.97;;
9836;SDS011;4957;51.412;6.724;2023-03-03T05:37:49;51.87;;;23.37;;
9836;SDS011;4957;51.412;6.724;2023-03-03T05:40:16;56.93;;;25.33;;
9836;SDS011;4957;51.412;6.724;2023-03-03T05:42:43;55.73;;;25.00;;
9836;SDS011;4957;51.412;6.724;2023-03-03T05:45:09;60.77;;;26.30;;
9836;SDS011;4957;51.412;6.724;2023-03-03T05:47:35;52.43;;;23.63;;
9836;SDS011;4957;51.412;6.724;2023-03-03T05:50:01;56.67;;;24.63;;
9836;SDS011;4957;51.412;6.724;2023-03-03T05:52:27;59.10;;;24.87;;
9836;SDS011;4957;51.412;6.724;2023-03-03T05:54:53;59.37;;;24.47;;
9836;SDS011;4957;51.412;6.724;2023-03-03T05:57:18;60.17;;;25.23;;
9836;SDS011;4957;51.412;6.724;2023-03-03T05:59:44;58.07;;;25.93;;
9836;SDS011;4957;51.412;6.724;2023-03-03T06:02:10;59.60;;;24.90;;
9836;SDS011;4957;51.412;6.724;2023-03-03T06:04:35;54.93;;;25.43;;
9836;SDS011;4957;51.412;6.724;2023-03-03T06:07:01;53.47;;;24.37;;
9836;SDS011;4957;51.412;6.724;2023-03-03T06:09:27;51.43;;;23.27;;
9836;SDS011;4957;51.412;6.724;2023-03-03T06:11:52;56.00;;;24.17;;
9836;SDS011;4957;51.412;6.724;2023-03-03T06:14:19;58.67;;;25.53;;
9836;SDS011;4957;51.412;6.724;2023-03-03T06:16:45;52.83;;;23.67;;
9836;SDS011;4957;51.412;6.724;2023-03-03T06:19:12;60.87;;;26.03;;
9836;SDS011;4957;51.412;6.724;2023-03-03T06:21:37;57.67;;;24.43;;
9836;SDS011;4957;51.412;6.724;2023-03-03T06:24:03;50.83;;;22.10;;
9836;SDS011;4957;51.412;6.724;2023-03-03T06:26:30;56.13;;;25.67;;
9836;SDS011;4957;51.412;6.724;2023-03-03T06:28:56;58.20;;;23.33;;
9836;SDS011;4957;51.412;6.724;2023-03-03T06:31:22;53.93;;;22.93;;
9836;SDS011;4957;51.412;6.724;2023-03-03T06:33:48;51.33;;;22.47;;
9836;SDS011;4957;51.412;6.724;2023-03-03T06:36:15;48.67;;;23.07;;
9836;SDS011;4957;51.412;6.724;2023-03-03T06:38:41;44.47;;;21.60;;
9836;SDS011;4957;51.412;6.724;2023-03-03T06:41:07;56.67;;;24.20;;
9836;SDS011;4957;51.412;6.724;2023-03-03T06:43:37;63.30;;;24.73;;
9836;SDS011;4957;51.412;6.724;2023-03-03T06:46:03;52.90;;;23.83;;
9836;SDS011;4957;51.412;6.724;2023-03-03T06:48:30;56.17;;;24.57;;
9836;SDS011;4957;51.412;6.724;2023-03-03T06:50:57;54.93;;;22.90;;
9836;SDS011;4957;51.412;6.724;2023-03-03T06:53:25;58.03;;;25.83;;
9836;SDS011;4957;51.412;6.724;2023-03-03T06:55:52;82.80;;;32.07;;
9836;SDS011;4957;51.412;6.724;2023-03-03T06:58:21;59.67;;;24.90;;
9836;SDS011;4957;51.412;6.724;2023-03-03T07:00:53;61.43;;;26.43;;
9836;SDS011;4957;51.412;6.724;2023-03-03T07:03:22;54.40;;;24.27;;
9836;SDS011;4957;51.412;6.724;2023-03-03T07:05:53;56.70;;;23.43;;
9836;SDS011;4957;51.412;6.724;2023-03-03T07:08:21;63.70;;;26.70;;
9836;SDS011;4957;51.412;6.724;2023-03-03T07:10:48;65.13;;;26.03;;
9836;SDS011;4957;51.412;6.724;2023-03-03T07:13:16;65.87;;;28.10;;
9836;SDS011;4957;51.412;6.724;2023-03-03T07:15:48;58.33;;;26.77;;
9836;SDS011;4957;51.412;6.724;2023-03-03T07:23:48;54.27;;;24.53;;
9836;SDS011;4957;51.412;6.724;2023-03-03T07:26:22;60.07;;;25.90;;
9836;SDS011;4957;51.412;6.724;2023-03-03T07:29:00;55.63;;;24.60;;
9836;SDS011;4957;51.412;6.724;2023-03-03T07:31:40;65.50;;;27.73;;
9836;SDS011;4957;51.412;6.724;2023-03-03T07:34:19;61.47;;;26.83;;
9836;SDS011;4957;51.412;6.724;2023-03-03T07:37:00;61.90;;;27.43;;
9836;SDS011;4957;51.412;6.724;2023-03-03T07:39:33;65.13;;;27.70;;
9836;SDS011;4957;51.412;6.724;2023-03-03T07:44:54;63.30;;;27.17;;
9836;SDS011;4957;51.412;6.724;2023-03-03T07:50:34;63.50;;;26.73;;
9836;SDS011;4957;51.412;6.724;2023-03-03T07:52:47;56.70;;;25.03;;
9836;SDS011;4957;51.412;6.724;2023-03-03T07:55:37;60.83;;;25.67;;
9836;SDS011;4957;51.412;6.724;2023-03-03T08:13:21;59.77;;;24.83;;
9836;SDS011;4957;51.412;6.724;2023-03-03T08:15:55;76.10;;;30.10;;
9836;SDS011;4957;51.412;6.724;2023-03-03T08:21:22;65.50;;;26.20;;
9836;SDS011;4957;51.412;6.724;2023-03-03T08:23:49;63.93;;;25.87;;
9836;SDS011;4957;51.412;6.724;2023-03-03T08:26:20;67.30;;;27.83;;
9836;SDS011;4957;51.412;6.724;2023-03-03T08:28:47;67.83;;;25.93;;
9836;SDS011;4957;51.412;6.724;2023-03-03T08:31:13;63.10;;;25.67;;
9836;SDS011;4957;51.412;6.724;2023-03-03T08:33:39;60.93;;;25.63;;
9836;SDS011;4957;51.412;6.724;2023-03-03T08:36:05;54.87;;;24.73;;
9836;SDS011;4957;51.412;6.724;2023-03-03T08:38:31;58.50;;;23.87;;
9836;SDS011;4957;51.412;6.724;2023-03-03T08:40:57;66.57;;;27.83;;
9836;SDS011;4957;51.412;6.724;2023-03-03T08:43:23;64.80;;;27.27;;
9836;SDS011;4957;51.412;6.724;2023-03-03T08:45:50;68.93;;;27.97;;
9836;SDS011;4957;51.412;6.724;2023-03-03T08:48:18;65.50;;;26.60;;
9836;SDS011;4957;51.412;6.724;2023-03-03T08:50:44;64.90;;;26.03;;
9836;SDS011;4957;51.412;6.724;2023-03-03T08:53:11;55.27;;;24.37;;
9836;SDS011;4957;51.412;6.724;2023-03-03T08:55:38;66.87;;;26.53;;
9836;SDS011;4957;51.412;6.724;2023-03-03T08:58:04;55.27;;;23.80;;
9836;SDS011;4957;51.412;6.724;2023-03-03T09:00:30;60.73;;;24.90;;
9836;SDS011;4957;51.412;6.724;2023-03-03T09:02:56;70.87;;;28.60;;
9836;SDS011;4957;51.412;6.724;2023-03-03T09:05:22;66.00;;;29.43;;
9836;SDS011;4957;51.412;6.724;2023-03-03T09:07:48;55.30;;;25.93;;
9836;SDS011;4957;51.412;6.724;2023-03-03T09:10:19;61.30;;;26.27;;
9836;SDS011;4957;51.412;6.724;2023-03-03T09:12:57;59.93;;;25.23;;
9836;SDS011;4957;51.412;6.724;2023-03-03T09:15:27;53.57;;;23.30;;
9836;SDS011;4957;51.412;6.724;2023-03-03T09:20:45;49.53;;;21.60;;
9836;SDS011;4957;51.412;6.724;2023-03-03T09:23:24;63.87;;;25.23;;
9836;SDS011;4957;51.412;6.724;2023-03-03T09:25:52;56.87;;;23.33;;
9836;SDS011;4957;51.412;6.724;2023-03-03T09:28:28;66.20;;;24.37;;
9836;SDS011;4957;51.412;6.724;2023-03-03T09:31:01;63.50;;;24.27;;
9836;SDS011;4957;51.412;6.724;2023-03-03T09:33:40;65.57;;;25.67;;
9836;SDS011;4957;51.412;6.724;2023-03-03T09:38:46;53.90;;;24.17;;
9836;SDS011;4957;51.412;6.724;2023-03-03T09:41:15;58.10;;;25.43;;
9836;SDS011;4957;51.412;6.724;2023-03-03T09:49:38;53.30;;;23.37;;
9836;SDS011;4957;51.412;6.724;2023-03-03T09:52:28;50.43;;;21.67;;
9836;SDS011;4957;51.412;6.724;2023-03-03T09:55:15;48.07;;;20.23;;
9836;SDS011;4957;51.412;6.724;2023-03-03T09:57:57;51.77;;;21.90;;
9836;SDS011;4957;51.412;6.724;2023-03-03T10:11:37;50.43;;;18.63;;
9836;SDS011;4957;51.412;6.724;2023-03-03T10:22:23;50.17;;;18.93;;
9836;SDS011;4957;51.412;6.724;2023-03-03T10:25:37;51.80;;;20.47;;
9836;SDS011;4957;51.412;6.724;2023-03-03T10:43:37;51.70;;;20.53;;
9836;SDS011;4957;51.412;6.724;2023-03-03T10:48:56;52.50;;;19.83;;
9836;SDS011;4957;51.412;6.724;2023-03-03T10:57:45;47.57;;;19.10;;
9836;SDS011;4957;51.412;6.724;2023-03-03T11:08:39;43.13;;;18.23;;
9836;SDS011;4957;51.412;6.724;2023-03-03T11:11:39;52.40;;;21.30;;
9836;SDS011;4957;51.412;6.724;2023-03-03T11:14:30;47.13;;;19.57;;
9836;SDS011;4957;51.412;6.724;2023-03-03T11:36:59;42.83;;;17.73;;
9836;SDS011;4957;51.412;6.724;2023-03-03T11:39:31;39.33;;;17.73;;
9836;SDS011;4957;51.412;6.724;2023-03-03T11:44:44;34.47;;;15.17;;
9836;SDS011;4957;51.412;6.724;2023-03-03T11:52:21;37.13;;;16.33;;
9836;SDS011;4957;51.412;6.724;2023-03-03T11:57:31;41.20;;;16.87;;
9836;SDS011;4957;51.412;6.724;2023-03-03T12:08:00;44.07;;;18.33;;
9836;SDS011;4957;51.412;6.724;2023-03-03T12:13:50;42.37;;;18.87;;
9836;SDS011;4957;51.412;6.724;2023-03-03T12:16:34;43.10;;;17.93;;
9836;SDS011;4957;51.412;6.724;2023-03-03T12:27:32;64.80;;;24.10;;
9836;SDS011;4957;51.412;6.724;2023-03-03T12:36:07;40.40;;;19.13;;
9836;SDS011;4957;51.412;6.724;2023-03-03T12:41:53;43.20;;;20.60;;
9836;SDS011;4957;51.412;6.724;2023-03-03T12:44:54;43.83;;;19.87;;
9836;SDS011;4957;51.412;6.724;2023-03-03T13:07:02;50.97;;;24.03;;
9836;SDS011;4957;51.412;6.724;2023-03-03T13:15:09;41.77;;;20.67;;
9836;SDS011;4957;51.412;6.724;2023-03-03T13:20:50;44.20;;;21.83;;
9836;SDS011;4957;51.412;6.724;2023-03-03T13:26:21;47.47;;;22.97;;
9836;SDS011;4957;51.412;6.724;2023-03-03T13:28:55;53.47;;;25.13;;
9836;SDS011;4957;51.412;6.724;2023-03-03T13:31:45;48.10;;;21.90;;
9836;SDS011;4957;51.412;6.724;2023-03-03T13:34:17;36.37;;;17.93;;
9836;SDS011;4957;51.412;6.724;2023-03-03T13:37:02;42.97;;;19.63;;
9836;SDS011;4957;51.412;6.724;2023-03-03T13:39:43;40.70;;;19.40;;
9836;SDS011;4957;51.412;6.724;2023-03-03T13:44:41;43.93;;;22.33;;
9836;SDS011;4957;51.412;6.724;2023-03-03T13:47:15;40.57;;;20.87;;
9836;SDS011;4957;51.412;6.724;2023-03-03T13:50:02;32.83;;;19.50;;
9836;SDS011;4957;51.412;6.724;2023-03-03T13:53:02;42.40;;;19.10;;
9836;SDS011;4957;51.412;6.724;2023-03-03T13:56:08;38.73;;;20.17;;
9836;SDS011;4957;51.412;6.724;2023-03-03T14:06:28;39.33;;;19.37;;
9836;SDS011;4957;51.412;6.724;2023-03-03T14:14:14;37.00;;;19.10;;
9836;SDS011;4957;51.412;6.724;2023-03-03T14:19:47;38.10;;;18.83;;
9836;SDS011;4957;51.412;6.724;2023-03-03T14:22:25;40.10;;;18.67;;
9836;SDS011;4957;51.412;6.724;2023-03-03T14:27:36;33.93;;;17.33;;
9836;SDS011;4957;51.412;6.724;2023-03-03T14:33:14;32.63;;;16.57;;
9836;SDS011;4957;51.412;6.724;2023-03-03T14:36:05;27.17;;;15.30;;
9836;SDS011;4957;51.412;6.724;2023-03-03T14:46:33;31.83;;;17.43;;
9836;SDS011;4957;51.412;6.724;2023-03-03T14:49:14;28.17;;;15.73;;
9836;SDS011;4957;51.412;6.724;2023-03-03T14:51:55;30.97;;;14.93;;
9836;SDS011;4957;51.412;6.724;2023-03-03T14:54:50;30.20;;;15.90;;
9836;SDS011;4957;51.412;6.724;2023-03-03T14:57:22;23.17;;;14.00;;
9836;SDS011;4957;51.412;6.724;2023-03-03T15:05:12;30.07;;;15.27;;
9836;SDS011;4957;51.412;6.724;2023-03-03T15:10:43;31.60;;;14.23;;
9836;SDS011;4957;51.412;6.724;2023-03-03T15:13:23;29.10;;;14.33;;
9836;SDS011;4957;51.412;6.724;2023-03-03T15:16:03;32.20;;;13.07;;
9836;SDS011;4957;51.412;6.724;2023-03-03T15:18:35;25.20;;;13.00;;
9836;SDS011;4957;51.412;6.724;2023-03-03T15:21:21;26.40;;;12.87;;
9836;SDS011;4957;51.412;6.724;2023-03-03T15:27:09;26.57;;;13.13;;
9836;SDS011;4957;51.412;6.724;2023-03-03T15:29:25;23.10;;;12.93;;
9836;SDS011;4957;51.412;6.724;2023-03-03T15:35:09;28.57;;;13.83;;
9836;SDS011;4957;51.412;6.724;2023-03-03T15:40:27;28.07;;;13.23;;
9836;SDS011;4957;51.412;6.724;2023-03-03T15:46:13;25.03;;;11.80;;
9836;SDS011;4957;51.412;6.724;2023-03-03T15:54:46;26.97;;;12.30;;
9836;SDS011;4957;51.412;6.724;2023-03-03T16:00:24;24.90;;;13.03;;
9836;SDS011;4957;51.412;6.724;2023-03-03T16:03:04;25.70;;;11.70;;
9836;SDS011;4957;51.412;6.724;2023-03-03T16:05:59;24.80;;;11.20;;
9836;SDS011;4957;51.412;6.724;2023-03-03T16:11:46;23.57;;;11.27;;
9836;SDS011;4957;51.412;6.724;2023-03-03T16:33:52;16.57;;;8.63;;
9836;SDS011;4957;51.412;6.724;2023-03-03T16:36:39;16.23;;;9.10;;
9836;SDS011;4957;51.412;6.724;2023-03-03T16:47:30;15.23;;;8.50;;
9836;SDS011;4957;51.412;6.724;2023-03-03T16:50:30;17.93;;;9.20;;
9836;SDS011;4957;51.412;6.724;2023-03-03T17:06:59;20.07;;;11.57;;
9836;SDS011;4957;51.412;6.724;2023-03-03T17:12:33;21.23;;;11.10;;
9836;SDS011;4957;51.412;6.724;2023-03-03T17:27:19;24.07;;;12.13;;
9836;SDS011;4957;51.412;6.724;2023-03-03T17:43:40;23.50;;;12.87;;
9836;SDS011;4957;51.412;6.724;2023-03-03T17:46:35;21.83;;;12.03;;
9836;SDS011;4957;51.412;6.724;2023-03-03T17:52:05;21.20;;;11.07;;
9836;SDS011;4957;51.412;6.724;2023-03-03T17:57:15;23.30;;;12.33;;
9836;SDS011;4957;51.412;6.724;2023-03-03T18:11:23;23.27;;;12.80;;
9836;SDS011;4957;51.412;6.724;2023-03-03T18:16:53;25.10;;;13.17;;
9836;SDS011;4957;51.412;6.724;2023-03-03T18:27:43;22.93;;;12.13;;
9836;SDS011;4957;51.412;6.724;2023-03-03T18:30:29;26.93;;;15.20;;
9836;SDS011;4957;51.412;6.724;2023-03-03T18:33:14;21.73;;;11.20;;
9836;SDS011;4957;51.412;6.724;2023-03-03T18:36:05;25.93;;;14.23;;
9836;SDS011;4957;51.412;6.724;2023-03-03T18:38:38;22.87;;;12.47;;
9836;SDS011;4957;51.412;6.724;2023-03-03T18:41:10;28.80;;;15.30;;
9836;SDS011;4957;51.412;6.724;2023-03-03T18:43:46;25.83;;;14.93;;
9836;SDS011;4957;51.412;6.724;2023-03-03T18:48:59;26.67;;;14.73;;
9836;SDS011;4957;51.412;6.724;2023-03-03T18:51:45;27.13;;;15.33;;
9836;SDS011;4957;51.412;6.724;2023-03-03T19:04:35;30.33;;;15.47;;
9836;SDS011;4957;51.412;6.724;2023-03-03T19:09:44;26.73;;;14.27;;
9836;SDS011;4957;51.412;6.724;2023-03-03T19:12:11;28.20;;;14.83;;
9836;SDS011;4957;51.412;6.724;2023-03-03T19:14:45;18.47;;;10.33;;
9836;SDS011;4957;51.412;6.724;2023-03-03T19:20:00;17.33;;;9.63;;
9836;SDS011;4957;51.412;6.724;2023-03-03T19:22:39;16.67;;;9.40;;
9836;SDS011;4957;51.412;6.724;2023-03-03T19:25:22;18.63;;;9.73;;
9836;SDS011;4957;51.412;6.724;2023-03-03T19:30:35;16.80;;;9.87;;
9836;SDS011;4957;51.412;6.724;2023-03-03T19:39:02;18.90;;;9.43;;
9836;SDS011;4957;51.412;6.724;2023-03-03T19:44:50;15.23;;;8.23;;
9836;SDS011;4957;51.412;6.724;2023-03-03T19:52:33;15.90;;;8.73;;
9836;SDS011;4957;51.412;6.724;2023-03-03T19:55:14;18.27;;;9.27;;
9836;SDS011;4957;51.412;6.724;2023-03-03T20:08:50;18.00;;;9.73;;
9836;SDS011;4957;51.412;6.724;2023-03-03T20:11:34;14.37;;;7.87;;
9836;SDS011;4957;51.412;6.724;2023-03-03T20:14:40;11.13;;;6.73;;
9836;SDS011;4957;51.412;6.724;2023-03-03T20:17:30;9.07;;;6.53;;
9836;SDS011;4957;51.412;6.724;2023-03-03T20:23:05;9.10;;;5.00;;
9836;SDS011;4957;51.412;6.724;2023-03-03T20:25:40;13.03;;;6.50;;
9836;SDS011;4957;51.412;6.724;2023-03-03T20:28:23;12.00;;;6.40;;
9836;SDS011;4957;51.412;6.724;2023-03-03T20:36:35;15.77;;;8.17;;
9836;SDS011;4957;51.412;6.724;2023-03-03T20:40:10;18.90;;;8.77;;
9836;SDS011;4957;51.412;6.724;2023-03-03T20:53:17;14.17;;;8.83;;
9836;SDS011;4957;51.412;6.724;2023-03-03T21:01:08;7.90;;;5.80;;
9836;SDS011;4957;51.412;6.724;2023-03-03T21:03:42;8.10;;;5.00;;
9836;SDS011;4957;51.412;6.724;2023-03-03T21:06:10;8.00;;;5.20;;
9836;SDS011;4957;51.412;6.724;2023-03-03T21:08:54;6.10;;;4.20;;
9836;SDS011;4957;51.412;6.724;2023-03-03T21:11:22;6.33;;;4.27;;
9836;SDS011;4957;51.412;6.724;2023-03-03T21:14:16;5.40;;;3.67;;
9836;SDS011;4957;51.412;6.724;2023-03-03T21:16:50;6.87;;;4.03;;
9836;SDS011;4957;51.412;6.724;2023-03-03T21:19:27;11.23;;;5.00;;
9836;SDS011;4957;51.412;6.724;2023-03-03T21:21:54;8.23;;;4.73;;
9836;SDS011;4957;51.412;6.724;2023-03-03T21:24:21;10.53;;;6.07;;
9836;SDS011;4957;51.412;6.724;2023-03-03T21:26:58;14.70;;;7.77;;
9836;SDS011;4957;51.412;6.724;2023-03-03T21:29:32;9.53;;;6.23;;
9836;SDS011;4957;51.412;6.724;2023-03-03T21:32:00;6.33;;;5.20;;
9836;SDS011;4957;51.412;6.724;2023-03-03T21:34:37;6.40;;;4.50;;
9836;SDS011;4957;51.412;6.724;2023-03-03T21:37:05;6.80;;;5.30;;
9836;SDS011;4957;51.412;6.724;2023-03-03T21:39:37;8.87;;;5.30;;
9836;SDS011;4957;51.412;6.724;2023-03-03T21:44:42;7.80;;;5.60;;
9836;SDS011;4957;51.412;6.724;2023-03-03T21:47:14;7.10;;;5.00;;
9836;SDS011;4957;51.412;6.724;2023-03-03T21:49:44;8.53;;;5.03;;
9836;SDS011;4957;51.412;6.724;2023-03-03T21:52:12;8.07;;;5.67;;
9836;SDS011;4957;51.412;6.724;2023-03-03T21:54:40;7.53;;;6.03;;
9836;SDS011;4957;51.412;6.724;2023-03-03T21:57:07;8.07;;;5.23;;
9836;SDS011;4957;51.412;6.724;2023-03-03T21:59:33;7.10;;;4.33;;
9836;SDS011;4957;51.412;6.724;2023-03-03T22:01:59;7.00;;;4.10;;
9836;SDS011;4957;51.412;6.724;2023-03-03T22:04:24;4.90;;;3.70;;
9836;SDS011;4957;51.412;6.724;2023-03-03T22:06:50;5.43;;;3.60;;
9836;SDS011;4957;51.412;6.724;2023-03-03T22:09:17;6.13;;;3.30;;
9836;SDS011;4957;51.412;6.724;2023-03-03T22:11:43;5.33;;;3.10;;
9836;SDS011;4957;51.412;6.724;2023-03-03T22:14:09;9.23;;;3.50;;
9836;SDS011;4957;51.412;6.724;2023-03-03T22:16:35;7.90;;;3.90;;
9836;SDS011;4957;51.412;6.724;2023-03-03T22:19:01;5.73;;;2.93;;
9836;SDS011;4957;51.412;6.724;2023-03-03T22:21:27;8.07;;;3.20;;
9836;SDS011;4957;51.412;6.724;2023-03-03T22:23:53;9.03;;;3.23;;
9836;SDS011;4957;51.412;6.724;2023-03-03T22:26:19;7.03;;;3.03;;
9836;SDS011;4957;51.412;6.724;2023-03-03T22:28:46;4.73;;;2.87;;
9836;SDS011;4957;51.412;6.724;2023-03-03T22:31:13;4.73;;;2.70;;
9836;SDS011;4957;51.412;6.724;2023-03-03T22:33:39;8.13;;;2.73;;
9836;SDS011;4957;51.412;6.724;2023-03-03T22:36:05;9.30;;;3.00;;
9836;SDS011;4957;51.412;6.724;2023-03-03T22:38:32;7.43;;;2.63;;
9836;SDS011;4957;51.412;6.724;2023-03-03T22:40:58;12.20;;;3.00;;
9836;SDS011;4957;51.412;6.724;2023-03-03T22:43:23;8.03;;;2.73;;